createdAt,value
2019-04-27T00:00:28.522Z,101635.22
2019-04-27T00:01:27.546Z,101635.25
2019-04-27T00:02:29.368Z,101635.33
2019-04-27T00:03:29.995Z,101634.59
2019-04-27T00:04:30.899Z,101634.63
2019-04-27T00:05:35.000Z,101633.78
2019-04-27T00:06:30.898Z,101633.86
2019-04-27T00:07:33.696Z,101633.22
2019-04-27T00:08:35.092Z,101632.74
2019-04-27T00:09:34.080Z,101632.31
2019-04-27T00:10:33.918Z,101631.73
2019-04-27T00:11:37.379Z,101630.80
2019-04-27T00:12:35.098Z,101630.80
2019-04-27T00:13:40.525Z,101630.13
2019-04-27T00:14:36.194Z,101629.78
2019-04-27T00:15:37.719Z,101629.70
2019-04-27T00:16:40.379Z,101629.37
2019-04-27T00:17:45.806Z,101629.28
2019-04-27T00:18:38.361Z,101628.72
2019-04-27T00:19:39.904Z,101628.55
2019-04-27T00:20:40.533Z,101627.20
2019-04-27T00:21:41.047Z,101626.61
2019-04-27T00:22:41.480Z,101626.47
2019-04-27T00:23:42.964Z,101625.63
2019-04-27T00:24:41.713Z,101624.81
2019-04-27T00:25:43.855Z,101624.38
2019-04-27T00:26:43.370Z,101623.40
2019-04-27T00:27:43.709Z,101622.56
2019-04-27T00:28:44.226Z,101621.30
2019-04-27T00:29:45.916Z,101620.95
2019-04-27T00:30:46.413Z,101620.19
2019-04-27T00:31:47.033Z,101619.80
2019-04-27T00:32:47.686Z,101618.95
2019-04-27T00:33:48.350Z,101619.04
2019-04-27T00:34:48.858Z,101617.55
2019-04-27T00:35:49.410Z,101617.05
2019-04-27T00:36:50.052Z,101616.28
2019-04-27T00:37:50.065Z,101615.64
2019-04-27T00:38:50.615Z,101615.05
2019-04-27T00:39:51.106Z,101614.06
2019-04-27T00:40:51.800Z,101613.98
2019-04-27T00:41:53.163Z,101613.41
2019-04-27T00:42:54.011Z,101612.94
2019-04-27T00:43:53.228Z,101612.63
2019-04-27T00:44:54.169Z,101611.72
2019-04-27T00:45:53.799Z,101610.81
2019-04-27T00:46:54.440Z,101610.00
2019-04-27T00:47:59.449Z,101609.55
2019-04-27T00:48:55.609Z,101608.78
2019-04-27T00:49:57.249Z,101607.80
2019-04-27T00:50:57.769Z,101607.27
2019-04-27T00:51:58.624Z,101606.70
2019-04-27T00:52:59.116Z,101605.57
2019-04-27T00:53:59.623Z,101604.67
2019-04-27T00:54:08.312Z,101594.38
2019-04-27T00:55:10.219Z,101584.63
2019-04-27T00:56:11.016Z,101584.72
2019-04-27T00:57:13.027Z,101584.80
2019-04-27T00:58:10.953Z,101585.25
2019-04-27T00:59:13.746Z,101585.75
2019-04-27T01:00:13.431Z,101585.86
2019-04-27T01:01:14.860Z,101586.06
2019-04-27T01:02:13.553Z,101587.32
2019-04-27T01:03:14.029Z,101587.48
2019-04-27T01:04:14.432Z,101588.19
2019-04-27T01:05:15.994Z,101587.96
2019-04-27T01:06:16.537Z,101588.30
2019-04-27T01:07:17.223Z,101588.41
2019-04-27T01:08:17.880Z,101588.93
2019-04-27T01:09:18.403Z,101589.13
2019-04-27T01:10:18.920Z,101589.13
2019-04-27T01:11:19.549Z,101589.33
2019-04-27T01:12:20.138Z,101589.09
2019-04-27T01:13:20.694Z,101589.09
2019-04-27T01:14:22.974Z,101589.20
2019-04-27T01:15:20.728Z,101589.48
2019-04-27T01:16:24.230Z,101590.09
2019-04-27T01:17:21.839Z,101590.20
2019-04-27T01:18:23.341Z,101590.22
2019-04-27T01:19:23.857Z,101590.83
2019-04-27T01:20:24.402Z,101590.54
2019-04-27T01:21:23.931Z,101590.14
2019-04-27T01:22:25.889Z,101590.42
2019-04-27T01:23:26.471Z,101590.02
2019-04-27T01:24:26.960Z,101589.65
2019-04-27T01:25:28.979Z,101589.22
2019-04-27T01:26:28.639Z,101588.67
2019-04-27T01:27:28.980Z,101588.22
2019-04-27T01:28:29.070Z,101587.50
2019-04-27T01:29:29.446Z,101587.08
2019-04-27T01:30:31.045Z,101586.81
2019-04-27T01:31:31.652Z,101586.03
2019-04-27T01:32:33.980Z,101585.34
2019-04-27T01:33:32.281Z,101585.02
2019-04-27T01:34:33.289Z,101584.63
2019-04-27T01:35:33.742Z,101583.97
2019-04-27T01:36:34.252Z,101583.02
2019-04-27T01:37:34.731Z,101581.94
2019-04-27T01:38:35.244Z,101581.33
2019-04-27T01:39:35.820Z,101580.30
2019-04-27T01:40:36.441Z,101579.53
2019-04-27T01:41:39.009Z,101578.33
2019-04-27T01:42:36.661Z,101577.62
2019-04-27T01:43:38.765Z,101576.93
2019-04-27T01:44:39.317Z,101576.30
2019-04-27T01:45:39.142Z,101575.76
2019-04-27T01:46:39.623Z,101574.93
2019-04-27T01:47:39.422Z,101574.28
2019-04-27T01:48:40.941Z,101573.88
2019-04-27T01:49:41.862Z,101573.06
2019-04-27T01:50:41.369Z,101571.91
2019-04-27T01:51:42.825Z,101571.17
2019-04-27T01:52:43.435Z,101570.52
2019-04-27T01:52:51.954Z,101563.38
2019-04-27T01:53:53.882Z,101556.52
2019-04-27T01:54:54.340Z,101556.69
2019-04-27T01:55:59.045Z,101556.69
2019-04-27T01:56:54.396Z,101556.69
2019-04-27T01:57:55.984Z,101557.36
2019-04-27T01:58:56.562Z,101557.53
2019-04-27T01:59:57.006Z,101557.53
2019-04-27T02:00:57.423Z,101557.36
2019-04-27T02:01:58.784Z,101557.56
2019-04-27T02:02:57.464Z,101557.81
2019-04-27T02:03:59.111Z,101558.05
2019-04-27T02:04:59.352Z,101558.51
2019-04-27T02:05:59.390Z,101558.33
2019-04-27T02:06:59.767Z,101558.61
2019-04-27T02:08:01.227Z,101558.77
2019-04-27T02:09:01.879Z,101558.80
2019-04-27T02:10:02.380Z,101558.87
2019-04-27T02:11:02.803Z,101559.08
2019-04-27T02:12:03.307Z,101559.41
2019-04-27T02:13:03.765Z,101559.52
2019-04-27T02:14:04.247Z,101559.70
2019-04-27T02:15:04.768Z,101559.47
2019-04-27T02:16:05.235Z,101559.66
2019-04-27T02:17:05.827Z,101559.42
2019-04-27T02:18:06.323Z,101559.28
2019-04-27T02:19:09.025Z,101558.73
2019-04-27T02:20:06.629Z,101558.78
2019-04-27T02:21:09.098Z,101558.57
2019-04-27T02:22:08.612Z,101558.11
2019-04-27T02:23:09.153Z,101557.31
2019-04-27T02:24:09.783Z,101557.33
2019-04-27T02:25:09.567Z,101556.42
2019-04-27T02:26:11.052Z,101555.86
2019-04-27T02:27:11.534Z,101555.52
2019-04-27T02:28:12.181Z,101554.95
2019-04-27T02:29:12.732Z,101554.98
2019-04-27T02:30:13.210Z,101554.55
2019-04-27T02:31:13.772Z,101554.15
2019-04-27T02:32:14.229Z,101553.75
2019-04-27T02:33:14.882Z,101553.19
2019-04-27T02:34:15.369Z,101552.53
2019-04-27T02:35:15.839Z,101552.30
2019-04-27T02:36:16.361Z,101551.74
2019-04-27T02:37:19.773Z,101551.06
2019-04-27T02:38:16.395Z,101551.06
2019-04-27T02:39:19.706Z,101550.47
2019-04-27T02:40:20.230Z,101549.91
2019-04-27T02:41:19.871Z,101549.99
2019-04-27T02:42:20.046Z,101549.77
2019-04-27T02:43:19.538Z,101549.25
2019-04-27T02:44:20.103Z,101548.94
2019-04-27T02:45:22.223Z,101548.55
2019-04-27T02:46:21.099Z,101548.37
2019-04-27T02:47:22.720Z,101547.72
2019-04-27T02:48:23.164Z,101547.30
2019-04-27T02:49:23.739Z,101546.95
2019-04-27T02:50:24.293Z,101547.06
2019-04-27T02:50:32.860Z,101547.91
2019-04-27T02:51:34.321Z,101548.94
2019-04-27T02:52:34.925Z,101548.59
2019-04-27T02:53:35.739Z,101548.41
2019-04-27T02:54:36.344Z,101547.81
2019-04-27T02:55:39.463Z,101547.28
2019-04-27T02:56:36.359Z,101547.38
2019-04-27T02:57:39.913Z,101546.77
2019-04-27T02:58:37.491Z,101546.52
2019-04-27T02:59:39.891Z,101546.18
2019-04-27T03:00:40.052Z,101545.42
2019-04-27T03:01:43.427Z,101544.69
2019-04-27T03:02:40.239Z,101544.44
2019-04-27T03:03:41.154Z,101544.18
2019-04-27T03:04:40.458Z,101543.59
2019-04-27T03:05:41.963Z,101543.42
2019-04-27T03:06:42.807Z,101542.94
2019-04-27T03:07:43.779Z,101542.48
2019-04-27T03:08:44.386Z,101542.22
2019-04-27T03:09:44.905Z,101541.56
2019-04-27T03:10:45.369Z,101541.26
2019-04-27T03:11:45.857Z,101540.95
2019-04-27T03:12:46.453Z,101540.52
2019-04-27T03:13:49.399Z,101540.27
2019-04-27T03:14:46.720Z,101539.28
2019-04-27T03:15:49.677Z,101538.19
2019-04-27T03:16:49.635Z,101537.09
2019-04-27T03:17:49.439Z,101536.50
2019-04-27T03:18:50.739Z,101535.77
2019-04-27T03:19:52.261Z,101535.02
2019-04-27T03:20:50.553Z,101533.94
2019-04-27T03:21:50.741Z,101533.05
2019-04-27T03:22:52.253Z,101531.94
2019-04-27T03:23:52.781Z,101530.61
2019-04-27T03:24:53.364Z,101529.71
2019-04-27T03:25:53.882Z,101528.81
2019-04-27T03:26:54.367Z,101528.16
2019-04-27T03:27:54.932Z,101526.56
2019-04-27T03:28:55.439Z,101525.66
2019-04-27T03:29:55.943Z,101524.83
2019-04-27T03:30:56.665Z,101523.51
2019-04-27T03:32:01.580Z,101521.84
2019-04-27T03:33:01.552Z,101520.27
2019-04-27T03:34:03.491Z,101519.34
2019-04-27T03:35:02.136Z,101518.53
2019-04-27T03:36:02.024Z,101517.19
2019-04-27T03:36:59.788Z,101516.34
2019-04-27T03:38:00.559Z,101515.00
2019-04-27T03:39:00.190Z,101513.99
2019-04-27T03:40:00.687Z,101513.07
2019-04-27T03:41:02.213Z,101511.89
2019-04-27T03:42:02.726Z,101510.72
2019-04-27T03:43:03.295Z,101509.88
2019-04-27T03:44:03.798Z,101509.03
2019-04-27T03:45:04.275Z,101508.36
2019-04-27T03:46:04.792Z,101507.70
2019-04-27T03:47:05.256Z,101506.94
2019-04-27T03:48:05.780Z,101505.53
2019-04-27T03:49:06.435Z,101504.84
2019-04-27T03:50:06.940Z,101503.61
2019-04-27T03:51:09.799Z,101502.38
2019-04-27T03:52:09.491Z,101501.36
2019-04-27T03:52:15.613Z,101483.02
2019-04-27T03:53:17.114Z,101485.28
2019-04-27T03:54:19.382Z,101484.95
2019-04-27T03:55:19.745Z,101484.45
2019-04-27T03:56:19.977Z,101483.60
2019-04-27T03:57:19.893Z,101482.84
2019-04-27T03:58:21.659Z,101482.84
2019-04-27T03:59:19.715Z,101482.16
2019-04-27T04:00:21.155Z,101482.02
2019-04-27T04:01:21.637Z,101481.63
2019-04-27T04:02:22.092Z,101481.95
2019-04-27T04:03:23.106Z,101481.55
2019-04-27T04:04:23.720Z,101480.48
2019-04-27T04:05:24.185Z,101480.31
2019-04-27T04:06:24.702Z,101480.00
2019-04-27T04:07:25.245Z,101479.86
2019-04-27T04:08:25.716Z,101479.52
2019-04-27T04:09:26.283Z,101478.88
2019-04-27T04:10:29.180Z,101478.28
2019-04-27T04:11:26.537Z,101478.20
2019-04-27T04:12:30.279Z,101477.75
2019-04-27T04:13:29.545Z,101477.41
2019-04-27T04:14:30.218Z,101477.67
2019-04-27T04:15:29.806Z,101477.59
2019-04-27T04:16:29.820Z,101477.51
2019-04-27T04:17:30.995Z,101477.14
2019-04-27T04:18:31.777Z,101476.78
2019-04-27T04:19:47.473Z,101476.45
2019-04-27T04:20:31.902Z,101476.59
2019-04-27T04:21:33.539Z,101476.44
2019-04-27T04:22:34.071Z,101476.19
2019-04-27T04:23:34.886Z,101476.02
2019-04-27T04:24:35.383Z,101475.73
2019-04-27T04:25:35.882Z,101475.32
2019-04-27T04:26:36.327Z,101474.91
2019-04-27T04:27:36.790Z,101475.05
2019-04-27T04:28:39.590Z,101474.63
2019-04-27T04:29:39.243Z,101474.97
2019-04-27T04:30:40.059Z,101474.97
2019-04-27T04:31:40.501Z,101474.94
2019-04-27T04:32:39.639Z,101474.61
2019-04-27T04:33:40.370Z,101474.44
2019-04-27T04:34:40.079Z,101473.77
2019-04-27T04:35:40.475Z,101473.36
2019-04-27T04:36:42.493Z,101472.91
2019-04-27T04:37:41.570Z,101472.23
2019-04-27T04:38:43.051Z,101472.30
2019-04-27T04:39:43.720Z,101472.20
2019-04-27T04:40:44.278Z,101471.20
2019-04-27T04:41:44.772Z,101471.09
2019-04-27T04:42:45.229Z,101469.88
2019-04-27T04:43:45.730Z,101468.97
2019-04-27T04:44:46.241Z,101467.91
2019-04-27T04:45:49.783Z,101467.30
2019-04-27T04:46:46.734Z,101466.84
2019-04-27T04:47:49.711Z,101466.38
2019-04-27T04:48:50.171Z,101465.50
2019-04-27T04:49:54.591Z,101464.90
2019-04-27T04:50:50.040Z,101464.62
2019-04-27T04:51:50.378Z,101464.30
2019-04-27T04:52:50.149Z,101464.02
2019-04-27T04:53:51.859Z,101463.15
2019-04-27T04:54:51.131Z,101462.73
2019-04-27T04:55:52.696Z,101461.95
2019-04-27T04:56:53.208Z,101461.52
2019-04-27T04:57:53.678Z,101461.48
2019-04-27T04:58:54.363Z,101461.41
2019-04-27T04:59:54.983Z,101461.05
2019-04-27T05:00:03.576Z,101457.08
2019-04-27T05:01:05.045Z,101454.57
2019-04-27T05:02:05.624Z,101454.74
2019-04-27T05:03:06.115Z,101454.33
2019-04-27T05:04:06.626Z,101454.41
2019-04-27T05:05:07.219Z,101454.24
2019-04-27T05:06:08.817Z,101454.72
2019-04-27T05:07:09.030Z,101454.05
2019-04-27T05:08:09.058Z,101453.95
2019-04-27T05:09:09.272Z,101453.84
2019-04-27T05:10:09.233Z,101453.81
2019-04-27T05:11:09.803Z,101453.38
2019-04-27T05:12:11.324Z,101452.42
2019-04-27T05:13:11.954Z,101452.05
2019-04-27T05:14:12.421Z,101451.75
2019-04-27T05:15:12.856Z,101450.86
2019-04-27T05:16:13.340Z,101450.41
2019-04-27T05:17:13.557Z,101449.83
2019-04-27T05:18:14.363Z,101449.20
2019-04-27T05:19:13.807Z,101448.62
2019-04-27T05:20:22.494Z,101447.73
2019-04-27T05:21:14.564Z,101447.41
2019-04-27T05:22:16.370Z,101447.37
2019-04-27T05:23:18.533Z,101446.80
2019-04-27T05:24:16.260Z,101446.81
2019-04-27T05:25:18.557Z,101446.41
2019-04-27T05:26:19.377Z,101446.42
2019-04-27T05:27:19.138Z,101446.02
2019-04-27T05:28:18.873Z,101446.34
2019-04-27T05:29:19.290Z,101445.94
2019-04-27T05:30:19.804Z,101445.59
2019-04-27T05:31:21.453Z,101445.86
2019-04-27T05:32:22.094Z,101446.01
2019-04-27T05:33:22.642Z,101445.97
2019-04-27T05:34:23.301Z,101445.98
2019-04-27T05:35:23.722Z,101446.33
2019-04-27T05:36:24.252Z,101446.86
2019-04-27T05:37:28.208Z,101446.64
2019-04-27T05:38:24.293Z,101446.63
2019-04-27T05:39:26.377Z,101446.66
2019-04-27T05:40:24.734Z,101447.12
2019-04-27T05:41:26.230Z,101447.32
2019-04-27T05:42:28.572Z,101447.19
2019-04-27T05:43:30.162Z,101447.89
2019-04-27T05:44:28.637Z,101447.59
2019-04-27T05:45:29.121Z,101448.22
2019-04-27T05:46:31.268Z,101448.19
2019-04-27T05:47:29.262Z,101448.75
2019-04-27T05:48:30.748Z,101448.39
2019-04-27T05:49:29.915Z,101448.20
2019-04-27T05:50:38.723Z,101448.34
2019-04-27T05:51:37.006Z,101447.44
2019-04-27T05:52:31.647Z,101447.38
2019-04-27T05:53:32.235Z,101447.38
2019-04-27T05:54:33.765Z,101447.10
2019-04-27T05:55:34.340Z,101446.94
2019-04-27T05:56:34.806Z,101446.66
2019-04-27T05:57:35.359Z,101447.64
2019-04-27T05:58:36.277Z,101447.53
2019-04-27T05:59:36.787Z,101447.42
2019-04-27T06:00:39.229Z,101447.80
2019-04-27T06:01:38.749Z,101447.77
2019-04-27T06:02:37.417Z,101448.08
2019-04-27T06:03:39.668Z,101447.89
2019-04-27T06:04:39.063Z,101447.52
2019-04-27T06:04:46.933Z,101447.16
2019-04-27T06:05:48.930Z,101443.84
2019-04-27T06:06:49.722Z,101443.67
2019-04-27T06:07:48.869Z,101443.59
2019-04-27T06:08:49.461Z,101443.73
2019-04-27T06:09:49.459Z,101443.40
2019-04-27T06:10:51.016Z,101443.87
2019-04-27T06:11:51.795Z,101443.68
2019-04-27T06:12:52.481Z,101443.66
2019-04-27T06:13:53.078Z,101443.30
2019-04-27T06:14:53.601Z,101443.52
2019-04-27T06:15:54.121Z,101443.46
2019-04-27T06:16:54.660Z,101442.80
2019-04-27T06:17:55.151Z,101442.69
2019-04-27T06:18:55.721Z,101442.58
2019-04-27T06:19:55.705Z,101442.05
2019-04-27T06:20:56.353Z,101441.84
2019-04-27T06:21:56.982Z,101441.23
2019-04-27T06:22:58.902Z,101440.70
2019-04-27T06:23:58.702Z,101440.08
2019-04-27T06:24:59.691Z,101439.89
2019-04-27T06:26:01.591Z,101439.19
2019-04-27T06:26:59.733Z,101438.88
2019-04-27T06:27:59.516Z,101438.43
2019-04-27T06:29:01.256Z,101438.06
2019-04-27T06:30:04.792Z,101437.28
2019-04-27T06:31:01.493Z,101437.59
2019-04-27T06:32:02.983Z,101437.14
2019-04-27T06:33:03.483Z,101436.78
2019-04-27T06:34:03.998Z,101436.75
2019-04-27T06:35:04.501Z,101436.05
2019-04-27T06:36:04.977Z,101435.86
2019-04-27T06:37:05.502Z,101435.06
2019-04-27T06:38:06.159Z,101434.95
2019-04-27T06:39:06.684Z,101434.51
2019-04-27T06:40:07.465Z,101434.11
2019-04-27T06:41:10.008Z,101433.80
2019-04-27T06:42:16.634Z,101433.50
2019-04-27T06:43:08.673Z,101433.11
2019-04-27T06:44:11.024Z,101432.63
2019-04-27T06:45:09.910Z,101432.29
2019-04-27T06:46:09.265Z,101432.23
2019-04-27T06:47:10.829Z,101431.90
2019-04-27T06:48:11.301Z,101430.91
2019-04-27T06:49:11.865Z,101430.49
2019-04-27T06:50:12.452Z,101429.84
2019-04-27T06:51:12.960Z,101429.42
2019-04-27T06:52:13.406Z,101428.66
2019-04-27T06:53:13.869Z,101428.49
2019-04-27T06:54:14.598Z,101427.42
2019-04-27T06:55:15.204Z,101426.49
2019-04-27T06:56:15.688Z,101426.06
2019-04-27T06:57:16.144Z,101425.25
2019-04-27T06:58:16.669Z,101424.83
2019-04-27T06:59:18.623Z,101424.09
2019-04-27T07:00:16.632Z,101423.33
2019-04-27T07:01:19.068Z,101422.73
2019-04-27T07:02:19.015Z,101422.34
2019-04-27T07:03:18.920Z,101422.59
2019-04-27T07:04:19.627Z,101422.58
2019-04-27T07:05:20.464Z,101421.73
2019-04-27T07:05:28.931Z,101417.86
2019-04-27T07:06:28.637Z,101407.25
2019-04-27T07:07:29.480Z,101407.50
2019-04-27T07:08:30.886Z,101407.55
2019-04-27T07:09:29.782Z,101407.69
2019-04-27T07:10:31.256Z,101408.42
2019-04-27T07:11:31.499Z,101408.30
2019-04-27T07:12:31.937Z,101408.16
2019-04-27T07:13:32.379Z,101408.69
2019-04-27T07:14:32.852Z,101408.53
2019-04-27T07:15:33.580Z,101408.72
2019-04-27T07:16:34.074Z,101407.81
2019-04-27T07:17:34.624Z,101407.72
2019-04-27T07:18:35.207Z,101407.31
2019-04-27T07:19:35.890Z,101407.01
2019-04-27T07:20:36.376Z,101406.16
2019-04-27T07:21:36.896Z,101405.41
2019-04-27T07:22:37.394Z,101404.97
2019-04-27T07:23:38.893Z,101404.70
2019-04-27T07:24:38.756Z,101404.44
2019-04-27T07:25:38.874Z,101403.63
2019-04-27T07:26:39.202Z,101403.02
2019-04-27T07:27:39.621Z,101402.38
2019-04-27T07:28:41.008Z,101401.43
2019-04-27T07:29:44.636Z,101400.82
2019-04-27T07:30:41.116Z,101399.87
2019-04-27T07:31:42.704Z,101399.73
2019-04-27T07:32:43.253Z,101399.27
2019-04-27T07:33:43.851Z,101398.82
2019-04-27T07:34:44.367Z,101398.34
2019-04-27T07:35:44.944Z,101397.56
2019-04-27T07:36:45.406Z,101396.70
2019-04-27T07:37:46.082Z,101396.34
2019-04-27T07:38:48.471Z,101396.28
2019-04-27T07:39:46.118Z,101395.84
2019-04-27T07:40:48.900Z,101395.81
2019-04-27T07:41:48.765Z,101395.72
2019-04-27T07:42:49.526Z,101394.76
2019-04-27T07:43:49.425Z,101394.11
2019-04-27T07:44:50.018Z,101393.50
2019-04-27T07:45:49.911Z,101392.97
2019-04-27T07:46:51.534Z,101392.09
2019-04-27T07:47:52.039Z,101391.56
2019-04-27T07:48:52.522Z,101390.81
2019-04-27T07:49:53.066Z,101389.64
2019-04-27T07:50:53.543Z,101389.19
2019-04-27T07:51:54.081Z,101388.77
2019-04-27T07:52:54.639Z,101388.06
2019-04-27T07:53:55.170Z,101387.43
2019-04-27T07:54:55.764Z,101387.02
2019-04-27T07:55:56.472Z,101386.39
2019-04-27T07:56:58.736Z,101385.09
2019-04-27T07:57:56.564Z,101384.23
2019-04-27T07:58:59.547Z,101383.70
2019-04-27T07:59:59.490Z,101383.27
2019-04-27T08:00:59.401Z,101382.90
2019-04-27T08:01:59.129Z,101382.56
2019-04-27T08:02:59.114Z,101382.17
2019-04-27T08:04:00.156Z,101381.58
2019-04-27T08:05:00.790Z,101381.58
2019-04-27T08:06:01.463Z,101381.41
2019-04-27T08:07:01.980Z,101380.99
2019-04-27T08:07:10.556Z,101384.19
2019-04-27T08:08:12.335Z,101378.17
2019-04-27T08:09:12.800Z,101378.77
2019-04-27T08:10:13.291Z,101378.94
2019-04-27T08:11:13.813Z,101379.11
2019-04-27T08:12:14.331Z,101379.19
2019-04-27T08:13:14.801Z,101379.11
2019-04-27T08:14:15.277Z,101379.78
2019-04-27T08:15:15.763Z,101380.13
2019-04-27T08:16:16.378Z,101380.30
2019-04-27T08:17:16.900Z,101380.92
2019-04-27T08:18:18.985Z,101381.17
2019-04-27T08:19:16.934Z,101381.34
2019-04-27T08:20:19.227Z,101381.68
2019-04-27T08:21:18.897Z,101381.72
2019-04-27T08:22:19.398Z,101381.97
2019-04-27T08:23:19.549Z,101382.14
2019-04-27T08:24:19.469Z,101381.89
2019-04-27T08:25:19.292Z,101381.63
2019-04-27T08:26:20.904Z,101381.97
2019-04-27T08:27:21.553Z,101382.31
2019-04-27T08:28:22.152Z,101382.43
2019-04-27T08:29:22.844Z,101383.10
2019-04-27T08:30:23.455Z,101383.53
2019-04-27T08:31:23.991Z,101383.36
2019-04-27T08:32:24.520Z,101383.33
2019-04-27T08:33:24.960Z,101383.32
2019-04-27T08:34:25.549Z,101383.45
2019-04-27T08:35:26.097Z,101383.81
2019-04-27T08:36:26.598Z,101383.77
2019-04-27T08:37:28.668Z,101383.86
2019-04-27T08:38:26.854Z,101383.67
2019-04-27T08:39:29.666Z,101382.41
2019-04-27T08:40:29.312Z,101381.88
2019-04-27T08:41:29.555Z,101381.00
2019-04-27T08:42:29.415Z,101380.72
2019-04-27T08:43:29.267Z,101380.10
2019-04-27T08:44:31.830Z,101379.40
2019-04-27T08:45:30.488Z,101378.81
2019-04-27T08:46:31.334Z,101378.36
2019-04-27T08:47:33.053Z,101376.80
2019-04-27T08:48:36.632Z,101375.67
2019-04-27T08:49:32.552Z,101374.25
2019-04-27T08:50:33.410Z,101373.24
2019-04-27T08:51:35.391Z,101372.32
2019-04-27T08:52:35.976Z,101371.14
2019-04-27T08:53:36.514Z,101370.64
2019-04-27T08:54:37.042Z,101369.47
2019-04-27T08:55:39.432Z,101368.45
2019-04-27T08:56:37.268Z,101367.73
2019-04-27T08:57:39.046Z,101366.69
2019-04-27T08:58:38.709Z,101365.25
2019-04-27T08:59:39.528Z,101364.08
2019-04-27T09:00:39.908Z,101363.23
2019-04-27T09:01:41.541Z,101361.64
2019-04-27T09:02:47.013Z,101360.41
2019-04-27T09:03:41.781Z,101358.98
2019-04-27T09:04:43.644Z,101357.64
2019-04-27T09:05:44.218Z,101356.25
2019-04-27T09:06:44.837Z,101354.95
2019-04-27T09:06:53.414Z,101334.01
2019-04-27T09:07:55.061Z,101327.19
2019-04-27T09:08:55.781Z,101326.59
2019-04-27T09:09:56.325Z,101327.09
2019-04-27T09:10:56.944Z,101327.02
2019-04-27T09:11:59.374Z,101327.01
2019-04-27T09:12:58.774Z,101327.06
2019-04-27T09:13:58.959Z,101326.42
2019-04-27T09:14:59.211Z,101326.20
2019-04-27T09:16:00.053Z,101326.13
2019-04-27T09:17:02.302Z,101325.86
2019-04-27T09:17:59.417Z,101325.95
2019-04-27T09:19:00.935Z,101325.34
2019-04-27T09:20:01.767Z,101325.13
2019-04-27T09:21:00.761Z,101324.91
2019-04-27T09:22:12.417Z,101324.36
2019-04-27T09:23:02.148Z,101324.48
2019-04-27T09:24:02.625Z,101324.44
2019-04-27T09:25:04.175Z,101324.73
2019-04-27T09:26:04.774Z,101324.64
2019-04-27T09:27:05.413Z,101325.32
2019-04-27T09:28:06.080Z,101326.13
2019-04-27T09:29:06.642Z,101326.30
2019-04-27T09:30:08.424Z,101326.98
2019-04-27T09:31:06.695Z,101326.73
2019-04-27T09:32:08.915Z,101327.17
2019-04-27T09:33:07.817Z,101327.72
2019-04-27T09:34:10.551Z,101328.53
2019-04-27T09:35:09.179Z,101328.44
2019-04-27T09:36:10.700Z,101329.13
2019-04-27T09:37:11.387Z,101328.11
2019-04-27T09:38:12.137Z,101327.82
2019-04-27T09:39:13.020Z,101328.63
2019-04-27T09:40:13.598Z,101328.41
2019-04-27T09:41:14.119Z,101328.80
2019-04-27T09:42:16.628Z,101329.09
2019-04-27T09:43:15.765Z,101329.22
2019-04-27T09:44:16.073Z,101329.69
2019-04-27T09:45:15.909Z,101330.70
2019-04-27T09:46:16.129Z,101331.08
2019-04-27T09:47:17.732Z,101331.97
2019-04-27T09:48:18.235Z,101332.44
2019-04-27T09:49:18.707Z,101332.34
2019-04-27T09:50:19.149Z,101333.24
2019-04-27T09:51:19.659Z,101334.13
2019-04-27T09:52:26.173Z,101334.77
2019-04-27T09:53:20.004Z,101334.80
2019-04-27T09:54:20.372Z,101335.48
2019-04-27T09:55:21.873Z,101335.86
2019-04-27T09:56:22.342Z,101335.73
2019-04-27T09:57:22.941Z,101335.52
2019-04-27T09:58:23.401Z,101335.95
2019-04-27T09:59:24.226Z,101334.93
2019-04-27T10:00:24.761Z,101334.93
2019-04-27T10:01:24.296Z,101334.42
2019-04-27T10:02:26.949Z,101333.91
2019-04-27T10:03:26.665Z,101333.48
2019-04-27T10:04:26.319Z,101332.85
2019-04-27T10:05:26.505Z,101332.47
2019-04-27T10:06:29.855Z,101331.92
2019-04-27T10:07:27.466Z,101331.46
2019-04-27T10:08:29.029Z,101330.53
2019-04-27T10:08:37.531Z,101322.13
2019-04-27T10:09:39.377Z,101317.77
2019-04-27T10:10:39.964Z,101317.52
2019-04-27T10:11:40.520Z,101317.98
2019-04-27T10:12:41.049Z,101317.64
2019-04-27T10:13:40.512Z,101317.86
2019-04-27T10:14:42.077Z,101317.64
2019-04-27T10:15:42.619Z,101317.44
2019-04-27T10:16:43.091Z,101317.14
2019-04-27T10:17:43.681Z,101317.05
2019-04-27T10:18:45.857Z,101316.88
2019-04-27T10:19:43.875Z,101316.34
2019-04-27T10:20:56.943Z,101316.30
2019-04-27T10:21:46.746Z,101316.41
2019-04-27T10:22:46.407Z,101316.09
2019-04-27T10:23:47.068Z,101315.53
2019-04-27T10:24:47.233Z,101314.81
2019-04-27T10:25:48.813Z,101314.61
2019-04-27T10:26:49.558Z,101314.27
2019-04-27T10:27:50.067Z,101313.16
2019-04-27T10:28:50.582Z,101312.36
2019-04-27T10:29:51.174Z,101311.98
2019-04-27T10:30:51.675Z,101311.47
2019-04-27T10:31:52.193Z,101311.05
2019-04-27T10:32:52.616Z,101311.09
2019-04-27T10:33:53.172Z,101309.34
2019-04-27T10:34:53.717Z,101308.80
2019-04-27T10:35:56.303Z,101307.61
2019-04-27T10:36:55.758Z,101306.80
2019-04-27T10:37:54.580Z,101305.88
2019-04-27T10:38:56.085Z,101304.94
2019-04-27T10:39:56.657Z,101304.05
2019-04-27T10:40:56.904Z,101303.96
2019-04-27T10:41:56.959Z,101303.38
2019-04-27T10:42:57.505Z,101302.61
2019-04-27T10:43:57.611Z,101302.64
2019-04-27T10:44:58.154Z,101302.02
2019-04-27T10:45:58.957Z,101301.72
2019-04-27T10:46:59.591Z,101300.99
2019-04-27T10:47:59.930Z,101300.41
2019-04-27T10:49:00.368Z,101299.22
2019-04-27T10:50:01.002Z,101298.36
2019-04-27T10:51:01.522Z,101297.98
2019-04-27T10:52:02.079Z,101296.73
2019-04-27T10:53:02.744Z,101295.63
2019-04-27T10:54:03.276Z,101294.40
2019-04-27T10:55:03.817Z,101293.00
2019-04-27T10:56:04.220Z,101292.01
2019-04-27T10:57:06.049Z,101291.52
2019-04-27T10:58:04.202Z,101290.02
2019-04-27T10:59:06.518Z,101288.98
2019-04-27T11:00:06.727Z,101287.45
2019-04-27T11:01:05.679Z,101286.15
2019-04-27T11:01:16.645Z,101273.55
2019-04-27T11:02:18.095Z,101264.02
2019-04-27T11:03:18.619Z,101263.59
2019-04-27T11:04:19.594Z,101262.98
2019-04-27T11:05:20.041Z,101262.94
2019-04-27T11:06:20.605Z,101262.69
2019-04-27T11:07:21.005Z,101261.58
2019-04-27T11:08:21.371Z,101261.24
2019-04-27T11:09:21.733Z,101260.99
2019-04-27T11:10:22.178Z,101260.57
2019-04-27T11:11:22.892Z,101259.69
2019-04-27T11:12:23.620Z,101259.06
2019-04-27T11:13:25.769Z,101258.83
2019-04-27T11:14:23.626Z,101258.33
2019-04-27T11:15:26.351Z,101257.74
2019-04-27T11:16:24.565Z,101257.20
2019-04-27T11:17:26.710Z,101256.36
2019-04-27T11:18:25.768Z,101256.38
2019-04-27T11:19:26.756Z,101255.80
2019-04-27T11:20:27.818Z,101255.39
2019-04-27T11:21:26.543Z,101254.80